sensor_id;sensor_type;location;lat;lon;timestamp;temperature;humidity
68556;HTU21D;55544;51.032;5.866;2024-01-30T00:01:50;11.01;70.76
68556;HTU21D;55544;51.032;5.866;2024-01-30T00:04:16;10.95;70.76
68556;HTU21D;55544;51.032;5.866;2024-01-30T00:06:43;10.95;70.79
68556;HTU21D;55544;51.032;5.866;2024-01-30T00:09:09;10.94;70.90
68556;HTU21D;55544;51.032;5.866;2024-01-30T00:11:36;10.84;71.12
68556;HTU21D;55544;51.032;5.866;2024-01-30T00:14:01;10.80;71.44
68556;HTU21D;55544;51.032;5.866;2024-01-30T00:16:28;10.75;71.72
68556;HTU21D;55544;51.032;5.866;2024-01-30T00:18:54;10.69;71.80
68556;HTU21D;55544;51.032;5.866;2024-01-30T00:21:21;10.67;71.80
68556;HTU21D;55544;51.032;5.866;2024-01-30T00:23:47;10.58;72.12
68556;HTU21D;55544;51.032;5.866;2024-01-30T00:26:13;10.56;72.19
68556;HTU21D;55544;51.032;5.866;2024-01-30T00:28:40;10.50;72.44
68556;HTU21D;55544;51.032;5.866;2024-01-30T00:31:07;10.46;72.80
68556;HTU21D;55544;51.032;5.866;2024-01-30T00:33:32;10.44;72.89
68556;HTU21D;55544;51.032;5.866;2024-01-30T00:35:58;10.43;72.96
68556;HTU21D;55544;51.032;5.866;2024-01-30T00:38:24;10.39;73.12
68556;HTU21D;55544;51.032;5.866;2024-01-30T00:40:50;10.39;72.94
68556;HTU21D;55544;51.032;5.866;2024-01-30T00:43:15;10.35;72.93
68556;HTU21D;55544;51.032;5.866;2024-01-30T00:45:43;10.36;72.97
68556;HTU21D;55544;51.032;5.866;2024-01-30T00:48:09;10.26;72.74
68556;HTU21D;55544;51.032;5.866;2024-01-30T00:50:35;10.21;73.08
68556;HTU21D;55544;51.032;5.866;2024-01-30T00:53:01;10.16;73.41
68556;HTU21D;55544;51.032;5.866;2024-01-30T00:55:27;10.20;74.05
68556;HTU21D;55544;51.032;5.866;2024-01-30T00:57:52;10.23;74.26
68556;HTU21D;55544;51.032;5.866;2024-01-30T01:00:18;10.27;74.57
68556;HTU21D;55544;51.032;5.866;2024-01-30T01:02:46;10.38;74.35
68556;HTU21D;55544;51.032;5.866;2024-01-30T01:05:12;10.38;74.28
68556;HTU21D;55544;51.032;5.866;2024-01-30T01:07:38;10.43;74.02
68556;HTU21D;55544;51.032;5.866;2024-01-30T01:10:03;10.44;74.10
68556;HTU21D;55544;51.032;5.866;2024-01-30T01:12:29;10.46;74.26
68556;HTU21D;55544;51.032;5.866;2024-01-30T01:14:55;10.45;74.47
68556;HTU21D;55544;51.032;5.866;2024-01-30T01:17:21;10.52;74.28
68556;HTU21D;55544;51.032;5.866;2024-01-30T01:19:46;10.53;74.02
68556;HTU21D;55544;51.032;5.866;2024-01-30T01:22:12;10.60;73.82
68556;HTU21D;55544;51.032;5.866;2024-01-30T01:24:38;10.60;73.86
68556;HTU21D;55544;51.032;5.866;2024-01-30T01:27:05;10.59;73.82
68556;HTU21D;55544;51.032;5.866;2024-01-30T01:29:31;10.64;73.67
68556;HTU21D;55544;51.032;5.866;2024-01-30T01:31:58;10.63;73.47
68556;HTU21D;55544;51.032;5.866;2024-01-30T01:34:24;10.63;73.89
68556;HTU21D;55544;51.032;5.866;2024-01-30T01:36:50;10.64;74.31
68556;HTU21D;55544;51.032;5.866;2024-01-30T01:39:17;10.68;74.16
68556;HTU21D;55544;51.032;5.866;2024-01-30T01:41:43;10.75;73.91
68556;HTU21D;55544;51.032;5.866;2024-01-30T01:44:09;10.82;73.48
68556;HTU21D;55544;51.032;5.866;2024-01-30T01:46:35;10.80;73.65
68556;HTU21D;55544;51.032;5.866;2024-01-30T01:49:05;10.83;73.61
68556;HTU21D;55544;51.032;5.866;2024-01-30T01:51:34;10.84;73.44
68556;HTU21D;55544;51.032;5.866;2024-01-30T01:54:03;10.93;73.60
68556;HTU21D;55544;51.032;5.866;2024-01-30T01:56:30;10.90;73.51
68556;HTU21D;55544;51.032;5.866;2024-01-30T01:59:00;10.95;73.41
68556;HTU21D;55544;51.032;5.866;2024-01-30T02:01:29;10.98;73.29
68556;HTU21D;55544;51.032;5.866;2024-01-30T02:03:56;10.97;73.29
68556;HTU21D;55544;51.032;5.866;2024-01-30T02:06:22;11.00;73.28
68556;HTU21D;55544;51.032;5.866;2024-01-30T02:08:48;11.01;73.22
68556;HTU21D;55544;51.032;5.866;2024-01-30T02:11:14;10.97;73.11
68556;HTU21D;55544;51.032;5.866;2024-01-30T02:13:41;11.02;73.31
68556;HTU21D;55544;51.032;5.866;2024-01-30T02:16:06;11.05;73.09
68556;HTU21D;55544;51.032;5.866;2024-01-30T02:18:32;11.09;73.32
68556;HTU21D;55544;51.032;5.866;2024-01-30T02:23:27;11.05;73.32
68556;HTU21D;55544;51.032;5.866;2024-01-30T02:25:53;11.07;73.38
68556;HTU21D;55544;51.032;5.866;2024-01-30T02:28:19;11.07;73.41
68556;HTU21D;55544;51.032;5.866;2024-01-30T02:30:46;11.11;73.28
68556;HTU21D;55544;51.032;5.866;2024-01-30T02:33:13;11.13;73.17
68556;HTU21D;55544;51.032;5.866;2024-01-30T02:35:39;11.16;73.28
68556;HTU21D;55544;51.032;5.866;2024-01-30T02:38:05;11.07;73.49
68556;HTU21D;55544;51.032;5.866;2024-01-30T02:40:31;11.14;73.47
68556;HTU21D;55544;51.032;5.866;2024-01-30T02:42:59;11.12;73.45
68556;HTU21D;55544;51.032;5.866;2024-01-30T02:45:25;11.15;73.51
68556;HTU21D;55544;51.032;5.866;2024-01-30T02:47:51;11.22;73.27
68556;HTU21D;55544;51.032;5.866;2024-01-30T02:50:17;11.22;73.36
68556;HTU21D;55544;51.032;5.866;2024-01-30T02:52:43;11.29;73.25
68556;HTU21D;55544;51.032;5.866;2024-01-30T02:55:12;11.26;73.39
68556;HTU21D;55544;51.032;5.866;2024-01-30T02:57:38;11.26;73.46
68556;HTU21D;55544;51.032;5.866;2024-01-30T03:00:05;11.30;73.43
68556;HTU21D;55544;51.032;5.866;2024-01-30T03:02:32;11.30;73.41
68556;HTU21D;55544;51.032;5.866;2024-01-30T03:04:58;11.34;73.12
68556;HTU21D;55544;51.032;5.866;2024-01-30T03:07:23;11.28;73.47
68556;HTU21D;55544;51.032;5.866;2024-01-30T03:09:49;11.34;73.46
68556;HTU21D;55544;51.032;5.866;2024-01-30T03:12:15;11.32;73.53
68556;HTU21D;55544;51.032;5.866;2024-01-30T03:14:40;11.39;73.32
68556;HTU21D;55544;51.032;5.866;2024-01-30T03:17:06;11.41;73.12
68556;HTU21D;55544;51.032;5.866;2024-01-30T03:19:32;11.42;73.20
68556;HTU21D;55544;51.032;5.866;2024-01-30T03:21:58;11.47;72.71
68556;HTU21D;55544;51.032;5.866;2024-01-30T03:24:24;11.52;73.06
68556;HTU21D;55544;51.032;5.866;2024-01-30T03:26:49;11.46;73.06
68556;HTU21D;55544;51.032;5.866;2024-01-30T03:29:15;11.48;72.64
68556;HTU21D;55544;51.032;5.866;2024-01-30T03:31:41;11.55;73.12
68556;HTU21D;55544;51.032;5.866;2024-01-30T03:34:07;11.53;72.99
68556;HTU21D;55544;51.032;5.866;2024-01-30T03:36:32;11.56;73.17
68556;HTU21D;55544;51.032;5.866;2024-01-30T03:39:00;11.52;72.98
68556;HTU21D;55544;51.032;5.866;2024-01-30T03:41:26;11.57;73.12
68556;HTU21D;55544;51.032;5.866;2024-01-30T03:43:52;11.61;73.12
68556;HTU21D;55544;51.032;5.866;2024-01-30T03:46:18;11.62;73.15
68556;HTU21D;55544;51.032;5.866;2024-01-30T03:48:45;11.67;73.35
68556;HTU21D;55544;51.032;5.866;2024-01-30T03:51:11;11.67;73.50
68556;HTU21D;55544;51.032;5.866;2024-01-30T03:53:40;11.68;73.46
68556;HTU21D;55544;51.032;5.866;2024-01-30T03:56:07;11.67;73.28
68556;HTU21D;55544;51.032;5.866;2024-01-30T03:58:33;11.66;73.59
68556;HTU21D;55544;51.032;5.866;2024-01-30T04:00:58;11.70;73.70
68556;HTU21D;55544;51.032;5.866;2024-01-30T04:03:24;11.67;73.75
68556;HTU21D;55544;51.032;5.866;2024-01-30T04:05:52;11.70;73.89
68556;HTU21D;55544;51.032;5.866;2024-01-30T04:08:18;11.70;73.99
68556;HTU21D;55544;51.032;5.866;2024-01-30T04:10:43;11.68;73.78
68556;HTU21D;55544;51.032;5.866;2024-01-30T04:13:10;11.68;73.85
68556;HTU21D;55544;51.032;5.866;2024-01-30T04:15:35;11.71;73.72
68556;HTU21D;55544;51.032;5.866;2024-01-30T04:18:01;11.67;73.71
68556;HTU21D;55544;51.032;5.866;2024-01-30T04:20:27;11.64;73.80
68556;HTU21D;55544;51.032;5.866;2024-01-30T04:22:52;11.64;74.38
68556;HTU21D;55544;51.032;5.866;2024-01-30T04:25:18;11.77;74.00
68556;HTU21D;55544;51.032;5.866;2024-01-30T04:27:44;11.76;74.12
68556;HTU21D;55544;51.032;5.866;2024-01-30T04:30:10;11.82;73.76
68556;HTU21D;55544;51.032;5.866;2024-01-30T04:32:36;11.84;73.90
68556;HTU21D;55544;51.032;5.866;2024-01-30T04:35:02;11.85;73.72
68556;HTU21D;55544;51.032;5.866;2024-01-30T04:37:28;11.89;73.56
68556;HTU21D;55544;51.032;5.866;2024-01-30T04:39:54;11.89;73.71
68556;HTU21D;55544;51.032;5.866;2024-01-30T04:42:20;11.83;73.62
68556;HTU21D;55544;51.032;5.866;2024-01-30T04:44:46;11.90;73.80
68556;HTU21D;55544;51.032;5.866;2024-01-30T04:47:11;11.89;73.75
68556;HTU21D;55544;51.032;5.866;2024-01-30T04:49:41;11.89;74.06
68556;HTU21D;55544;51.032;5.866;2024-01-30T04:52:07;11.92;73.85
68556;HTU21D;55544;51.032;5.866;2024-01-30T04:54:34;12.03;73.68
68556;HTU21D;55544;51.032;5.866;2024-01-30T04:57:00;12.07;73.52
68556;HTU21D;55544;51.032;5.866;2024-01-30T04:59:26;12.05;73.78
68556;HTU21D;55544;51.032;5.866;2024-01-30T05:01:52;12.06;73.84
68556;HTU21D;55544;51.032;5.866;2024-01-30T05:04:18;12.04;74.21
68556;HTU21D;55544;51.032;5.866;2024-01-30T05:06:43;12.04;73.83
68556;HTU21D;55544;51.032;5.866;2024-01-30T05:09:09;12.08;73.96
68556;HTU21D;55544;51.032;5.866;2024-01-30T05:11:40;12.26;73.03
68556;HTU21D;55544;51.032;5.866;2024-01-30T05:14:07;12.17;73.42
68556;HTU21D;55544;51.032;5.866;2024-01-30T05:16:34;12.22;73.52
68556;HTU21D;55544;51.032;5.866;2024-01-30T05:19:00;12.16;73.36
68556;HTU21D;55544;51.032;5.866;2024-01-30T05:21:26;12.23;73.30
68556;HTU21D;55544;51.032;5.866;2024-01-30T05:23:51;12.21;73.63
68556;HTU21D;55544;51.032;5.866;2024-01-30T05:26:17;12.21;73.54
68556;HTU21D;55544;51.032;5.866;2024-01-30T05:28:43;12.25;73.32
68556;HTU21D;55544;51.032;5.866;2024-01-30T05:31:13;12.26;73.27
68556;HTU21D;55544;51.032;5.866;2024-01-30T05:33:40;12.27;73.22
68556;HTU21D;55544;51.032;5.866;2024-01-30T05:36:06;12.35;72.82
68556;HTU21D;55544;51.032;5.866;2024-01-30T05:38:32;12.34;73.01
68556;HTU21D;55544;51.032;5.866;2024-01-30T05:40:57;12.33;73.01
68556;HTU21D;55544;51.032;5.866;2024-01-30T05:43:24;12.33;72.95
68556;HTU21D;55544;51.032;5.866;2024-01-30T05:45:50;12.40;72.84
68556;HTU21D;55544;51.032;5.866;2024-01-30T05:48:16;12.40;72.67
68556;HTU21D;55544;51.032;5.866;2024-01-30T05:50:42;12.36;72.72
68556;HTU21D;55544;51.032;5.866;2024-01-30T05:53:08;12.48;72.50
68556;HTU21D;55544;51.032;5.866;2024-01-30T05:55:34;12.40;72.60
68556;HTU21D;55544;51.032;5.866;2024-01-30T05:57:59;12.37;72.61
68556;HTU21D;55544;51.032;5.866;2024-01-30T06:00:25;12.29;72.92
68556;HTU21D;55544;51.032;5.866;2024-01-30T06:02:51;12.40;72.83
68556;HTU21D;55544;51.032;5.866;2024-01-30T06:05:16;12.31;72.97
68556;HTU21D;55544;51.032;5.866;2024-01-30T06:07:42;12.29;73.21
68556;HTU21D;55544;51.032;5.866;2024-01-30T06:10:08;12.36;72.91
68556;HTU21D;55544;51.032;5.866;2024-01-30T06:12:35;12.37;72.71
68556;HTU21D;55544;51.032;5.866;2024-01-30T06:15:01;12.33;73.25
68556;HTU21D;55544;51.032;5.866;2024-01-30T06:17:28;12.34;72.77
68556;HTU21D;55544;51.032;5.866;2024-01-30T06:19:53;12.40;73.01
68556;HTU21D;55544;51.032;5.866;2024-01-30T06:22:19;12.29;73.01
68556;HTU21D;55544;51.032;5.866;2024-01-30T06:24:45;12.31;73.34
68556;HTU21D;55544;51.032;5.866;2024-01-30T06:27:14;12.35;73.45
68556;HTU21D;55544;51.032;5.866;2024-01-30T06:29:40;12.45;72.93
68556;HTU21D;55544;51.032;5.866;2024-01-30T06:32:06;12.42;73.12
68556;HTU21D;55544;51.032;5.866;2024-01-30T06:34:32;12.42;72.90
68556;HTU21D;55544;51.032;5.866;2024-01-30T06:36:57;12.32;73.25
68556;HTU21D;55544;51.032;5.866;2024-01-30T06:39:23;12.42;72.77
68556;HTU21D;55544;51.032;5.866;2024-01-30T06:41:49;12.37;72.96
68556;HTU21D;55544;51.032;5.866;2024-01-30T06:44:15;12.34;73.23
68556;HTU21D;55544;51.032;5.866;2024-01-30T06:46:40;12.41;73.32
68556;HTU21D;55544;51.032;5.866;2024-01-30T06:49:06;12.38;73.32
68556;HTU21D;55544;51.032;5.866;2024-01-30T06:51:32;12.41;73.16
68556;HTU21D;55544;51.032;5.866;2024-01-30T06:53:58;12.41;73.22
68556;HTU21D;55544;51.032;5.866;2024-01-30T06:56:23;12.41;73.15
68556;HTU21D;55544;51.032;5.866;2024-01-30T06:58:50;12.42;73.17
68556;HTU21D;55544;51.032;5.866;2024-01-30T07:01:16;12.37;73.50
68556;HTU21D;55544;51.032;5.866;2024-01-30T07:03:42;12.43;73.45
68556;HTU21D;55544;51.032;5.866;2024-01-30T07:06:09;12.44;73.24
68556;HTU21D;55544;51.032;5.866;2024-01-30T07:08:36;12.45;73.18
68556;HTU21D;55544;51.032;5.866;2024-01-30T07:11:05;12.38;73.33
68556;HTU21D;55544;51.032;5.866;2024-01-30T07:13:32;12.45;73.31
68556;HTU21D;55544;51.032;5.866;2024-01-30T07:15:58;12.44;73.41
68556;HTU21D;55544;51.032;5.866;2024-01-30T07:18:24;12.46;73.48
68556;HTU21D;55544;51.032;5.866;2024-01-30T07:20:49;12.47;73.24
68556;HTU21D;55544;51.032;5.866;2024-01-30T07:23:16;12.48;73.12
68556;HTU21D;55544;51.032;5.866;2024-01-30T07:25:46;12.49;73.14
68556;HTU21D;55544;51.032;5.866;2024-01-30T07:28:14;12.41;73.67
68556;HTU21D;55544;51.032;5.866;2024-01-30T07:30:42;12.45;73.52
68556;HTU21D;55544;51.032;5.866;2024-01-30T07:33:08;12.46;73.50
68556;HTU21D;55544;51.032;5.866;2024-01-30T07:35:35;12.43;73.35
68556;HTU21D;55544;51.032;5.866;2024-01-30T07:38:01;12.37;73.72
68556;HTU21D;55544;51.032;5.866;2024-01-30T07:40:26;12.37;73.88
68556;HTU21D;55544;51.032;5.866;2024-01-30T07:42:53;12.35;74.08
68556;HTU21D;55544;51.032;5.866;2024-01-30T07:45:19;12.31;74.31
68556;HTU21D;55544;51.032;5.866;2024-01-30T07:47:50;12.33;74.37
68556;HTU21D;55544;51.032;5.866;2024-01-30T07:50:17;12.33;74.27
68556;HTU21D;55544;51.032;5.866;2024-01-30T07:52:43;12.33;74.51
68556;HTU21D;55544;51.032;5.866;2024-01-30T07:55:09;12.34;74.59
68556;HTU21D;55544;51.032;5.866;2024-01-30T07:57:35;12.32;74.47
68556;HTU21D;55544;51.032;5.866;2024-01-30T08:00:01;12.33;74.27
68556;HTU21D;55544;51.032;5.866;2024-01-30T08:02:32;12.23;74.51
68556;HTU21D;55544;51.032;5.866;2024-01-30T08:04:58;12.27;74.67
68556;HTU21D;55544;51.032;5.866;2024-01-30T08:07:24;12.33;74.29
68556;HTU21D;55544;51.032;5.866;2024-01-30T08:09:50;12.25;74.52
68556;HTU21D;55544;51.032;5.866;2024-01-30T08:12:16;12.26;74.65
68556;HTU21D;55544;51.032;5.866;2024-01-30T08:14:41;12.25;74.70
68556;HTU21D;55544;51.032;5.866;2024-01-30T08:17:07;12.30;74.47
68556;HTU21D;55544;51.032;5.866;2024-01-30T08:19:33;12.30;74.23
68556;HTU21D;55544;51.032;5.866;2024-01-30T08:21:59;12.37;74.31
68556;HTU21D;55544;51.032;5.866;2024-01-30T08:24:25;12.35;74.02
68556;HTU21D;55544;51.032;5.866;2024-01-30T08:26:51;12.29;74.47
68556;HTU21D;55544;51.032;5.866;2024-01-30T08:29:16;12.31;74.67
68556;HTU21D;55544;51.032;5.866;2024-01-30T08:31:42;12.30;74.50
68556;HTU21D;55544;51.032;5.866;2024-01-30T08:34:08;12.32;74.77
68556;HTU21D;55544;51.032;5.866;2024-01-30T08:36:34;12.33;74.44
68556;HTU21D;55544;51.032;5.866;2024-01-30T08:38:59;12.30;74.67
68556;HTU21D;55544;51.032;5.866;2024-01-30T08:41:25;12.36;74.36
68556;HTU21D;55544;51.032;5.866;2024-01-30T08:43:52;12.38;74.42
68556;HTU21D;55544;51.032;5.866;2024-01-30T08:46:18;12.41;74.35
68556;HTU21D;55544;51.032;5.866;2024-01-30T08:48:44;12.48;74.30
68556;HTU21D;55544;51.032;5.866;2024-01-30T08:51:10;12.47;74.36
68556;HTU21D;55544;51.032;5.866;2024-01-30T08:53:36;12.47;74.36
68556;HTU21D;55544;51.032;5.866;2024-01-30T08:56:06;12.48;74.73
68556;HTU21D;55544;51.032;5.866;2024-01-30T08:58:32;12.51;74.65
68556;HTU21D;55544;51.032;5.866;2024-01-30T09:00:58;12.57;74.58
68556;HTU21D;55544;51.032;5.866;2024-01-30T09:03:24;12.58;74.67
68556;HTU21D;55544;51.032;5.866;2024-01-30T09:05:50;12.64;74.51
68556;HTU21D;55544;51.032;5.866;2024-01-30T09:08:16;12.65;74.37
68556;HTU21D;55544;51.032;5.866;2024-01-30T09:10:41;12.66;74.61
68556;HTU21D;55544;51.032;5.866;2024-01-30T09:13:07;12.69;74.76
68556;HTU21D;55544;51.032;5.866;2024-01-30T09:15:33;12.66;74.71
68556;HTU21D;55544;51.032;5.866;2024-01-30T09:17:58;12.67;74.76
68556;HTU21D;55544;51.032;5.866;2024-01-30T09:20:24;12.66;74.98
68556;HTU21D;55544;51.032;5.866;2024-01-30T09:22:50;12.70;74.64
68556;HTU21D;55544;51.032;5.866;2024-01-30T09:25:15;12.74;74.65
68556;HTU21D;55544;51.032;5.866;2024-01-30T09:27:41;12.71;74.38
68556;HTU21D;55544;51.032;5.866;2024-01-30T09:30:07;12.70;74.78
68556;HTU21D;55544;51.032;5.866;2024-01-30T09:32:33;12.74;74.63
68556;HTU21D;55544;51.032;5.866;2024-01-30T09:34:59;12.81;74.71
68556;HTU21D;55544;51.032;5.866;2024-01-30T09:37:24;12.80;74.62
68556;HTU21D;55544;51.032;5.866;2024-01-30T09:39:50;12.80;74.70
68556;HTU21D;55544;51.032;5.866;2024-01-30T09:44:51;12.84;74.75
68556;HTU21D;55544;51.032;5.866;2024-01-30T09:47:20;12.94;74.62
68556;HTU21D;55544;51.032;5.866;2024-01-30T09:49:47;12.99;74.66
68556;HTU21D;55544;51.032;5.866;2024-01-30T09:52:14;12.95;74.26
68556;HTU21D;55544;51.032;5.866;2024-01-30T09:54:41;12.94;74.70
68556;HTU21D;55544;51.032;5.866;2024-01-30T09:57:07;13.02;74.17
68556;HTU21D;55544;51.032;5.866;2024-01-30T09:59:34;13.09;74.30
68556;HTU21D;55544;51.032;5.866;2024-01-30T10:02:00;13.07;74.68
68556;HTU21D;55544;51.032;5.866;2024-01-30T10:04:26;13.15;74.05
68556;HTU21D;55544;51.032;5.866;2024-01-30T10:06:52;13.14;74.41
68556;HTU21D;55544;51.032;5.866;2024-01-30T10:09:17;13.16;74.33
68556;HTU21D;55544;51.032;5.866;2024-01-30T10:11:43;13.19;74.87
68556;HTU21D;55544;51.032;5.866;2024-01-30T10:14:09;13.17;74.80
68556;HTU21D;55544;51.032;5.866;2024-01-30T10:16:35;13.21;74.51
68556;HTU21D;55544;51.032;5.866;2024-01-30T10:19:01;13.30;74.31
68556;HTU21D;55544;51.032;5.866;2024-01-30T10:21:26;13.35;73.96
68556;HTU21D;55544;51.032;5.866;2024-01-30T10:23:52;13.39;74.20
68556;HTU21D;55544;51.032;5.866;2024-01-30T10:26:19;13.41;74.08
68556;HTU21D;55544;51.032;5.866;2024-01-30T10:28:45;13.43;74.30
68556;HTU21D;55544;51.032;5.866;2024-01-30T10:31:10;13.51;74.26
68556;HTU21D;55544;51.032;5.866;2024-01-30T10:33:36;13.54;74.22
68556;HTU21D;55544;51.032;5.866;2024-01-30T10:36:06;13.58;73.96
68556;HTU21D;55544;51.032;5.866;2024-01-30T10:38:32;13.51;73.92
68556;HTU21D;55544;51.032;5.866;2024-01-30T10:41:00;13.53;73.89
68556;HTU21D;55544;51.032;5.866;2024-01-30T10:43:36;13.55;74.35
68556;HTU21D;55544;51.032;5.866;2024-01-30T10:46:18;13.63;74.32
68556;HTU21D;55544;51.032;5.866;2024-01-30T10:48:51;13.59;74.40
68556;HTU21D;55544;51.032;5.866;2024-01-30T10:51:22;13.58;74.38
68556;HTU21D;55544;51.032;5.866;2024-01-30T10:53:49;13.64;74.06
68556;HTU21D;55544;51.032;5.866;2024-01-30T10:56:16;13.55;74.06
68556;HTU21D;55544;51.032;5.866;2024-01-30T10:58:42;13.63;73.84
68556;HTU21D;55544;51.032;5.866;2024-01-30T11:01:09;13.55;74.73
68556;HTU21D;55544;51.032;5.866;2024-01-30T11:03:35;13.63;74.57
68556;HTU21D;55544;51.032;5.866;2024-01-30T11:06:02;13.58;74.86
68556;HTU21D;55544;51.032;5.866;2024-01-30T11:08:32;13.52;75.16
68556;HTU21D;55544;51.032;5.866;2024-01-30T11:10:58;13.62;74.42
68556;HTU21D;55544;51.032;5.866;2024-01-30T11:13:29;13.54;75.52
68556;HTU21D;55544;51.032;5.866;2024-01-30T11:15:55;13.56;75.46
68556;HTU21D;55544;51.032;5.866;2024-01-30T11:18:26;13.56;74.97
68556;HTU21D;55544;51.032;5.866;2024-01-30T11:20:57;13.50;75.38
68556;HTU21D;55544;51.032;5.866;2024-01-30T11:23:23;13.51;75.83
68556;HTU21D;55544;51.032;5.866;2024-01-30T11:25:52;13.55;75.84
68556;HTU21D;55544;51.032;5.866;2024-01-30T11:28:21;13.59;75.36
68556;HTU21D;55544;51.032;5.866;2024-01-30T11:30:47;13.58;75.49
68556;HTU21D;55544;51.032;5.866;2024-01-30T11:33:28;13.52;75.76
68556;HTU21D;55544;51.032;5.866;2024-01-30T11:35:58;13.59;75.71
68556;HTU21D;55544;51.032;5.866;2024-01-30T11:38:33;13.56;75.69
68556;HTU21D;55544;51.032;5.866;2024-01-30T11:41:00;13.55;75.63
68556;HTU21D;55544;51.032;5.866;2024-01-30T11:43:28;13.48;76.40
68556;HTU21D;55544;51.032;5.866;2024-01-30T11:45:53;13.48;76.72
68556;HTU21D;55544;51.032;5.866;2024-01-30T11:48:19;13.45;76.79
68556;HTU21D;55544;51.032;5.866;2024-01-30T11:50:45;13.44;76.71
68556;HTU21D;55544;51.032;5.866;2024-01-30T11:53:12;13.47;76.98
68556;HTU21D;55544;51.032;5.866;2024-01-30T11:55:38;13.44;77.02
68556;HTU21D;55544;51.032;5.866;2024-01-30T11:58:04;13.41;77.11
68556;HTU21D;55544;51.032;5.866;2024-01-30T12:00:30;13.47;76.70
68556;HTU21D;55544;51.032;5.866;2024-01-30T12:02:56;13.41;76.89
68556;HTU21D;55544;51.032;5.866;2024-01-30T12:05:26;13.31;77.30
68556;HTU21D;55544;51.032;5.866;2024-01-30T12:07:52;13.33;77.15
68556;HTU21D;55544;51.032;5.866;2024-01-30T12:10:19;13.25;77.43
68556;HTU21D;55544;51.032;5.866;2024-01-30T12:12:49;13.33;77.07
68556;HTU21D;55544;51.032;5.866;2024-01-30T12:15:16;13.37;76.82
68556;HTU21D;55544;51.032;5.866;2024-01-30T12:17:42;13.24;77.45
68556;HTU21D;55544;51.032;5.866;2024-01-30T12:20:14;13.23;77.58
68556;HTU21D;55544;51.032;5.866;2024-01-30T12:22:41;13.20;77.83
68556;HTU21D;55544;51.032;5.866;2024-01-30T12:25:09;13.23;77.74
68556;HTU21D;55544;51.032;5.866;2024-01-30T12:27:39;13.22;77.90
68556;HTU21D;55544;51.032;5.866;2024-01-30T12:30:08;13.23;77.44
68556;HTU21D;55544;51.032;5.866;2024-01-30T12:32:35;13.16;77.91
68556;HTU21D;55544;51.032;5.866;2024-01-30T12:35:02;13.16;78.03
68556;HTU21D;55544;51.032;5.866;2024-01-30T12:37:28;13.23;77.89
68556;HTU21D;55544;51.032;5.866;2024-01-30T12:39:55;13.18;77.86
68556;HTU21D;55544;51.032;5.866;2024-01-30T12:42:20;13.15;78.05
68556;HTU21D;55544;51.032;5.866;2024-01-30T12:44:48;13.12;78.14
68556;HTU21D;55544;51.032;5.866;2024-01-30T12:47:14;13.10;78.05
68556;HTU21D;55544;51.032;5.866;2024-01-30T12:49:44;13.16;77.78
68556;HTU21D;55544;51.032;5.866;2024-01-30T12:52:12;13.19;77.70
68556;HTU21D;55544;51.032;5.866;2024-01-30T12:54:38;13.12;78.25
68556;HTU21D;55544;51.032;5.866;2024-01-30T12:57:05;13.21;78.02
68556;HTU21D;55544;51.032;5.866;2024-01-30T12:59:31;13.04;78.41
68556;HTU21D;55544;51.032;5.866;2024-01-30T13:01:58;13.12;78.16
68556;HTU21D;55544;51.032;5.866;2024-01-30T13:04:24;13.17;78.31
68556;HTU21D;55544;51.032;5.866;2024-01-30T13:06:50;13.23;77.92
68556;HTU21D;55544;51.032;5.866;2024-01-30T13:09:16;13.32;77.82
68556;HTU21D;55544;51.032;5.866;2024-01-30T13:11:41;13.45;77.85
68556;HTU21D;55544;51.032;5.866;2024-01-30T13:14:07;13.68;77.27
68556;HTU21D;55544;51.032;5.866;2024-01-30T13:16:33;13.76;76.52
68556;HTU21D;55544;51.032;5.866;2024-01-30T13:18:59;13.73;76.21
68556;HTU21D;55544;51.032;5.866;2024-01-30T13:21:26;13.70;75.92
68556;HTU21D;55544;51.032;5.866;2024-01-30T13:23:52;13.74;75.60
68556;HTU21D;55544;51.032;5.866;2024-01-30T13:26:20;13.63;75.70
68556;HTU21D;55544;51.032;5.866;2024-01-30T13:28:45;13.64;75.86
68556;HTU21D;55544;51.032;5.866;2024-01-30T13:31:12;13.55;75.41
68556;HTU21D;55544;51.032;5.866;2024-01-30T13:33:38;13.50;74.95
68556;HTU21D;55544;51.032;5.866;2024-01-30T13:36:04;13.37;75.11
68556;HTU21D;55544;51.032;5.866;2024-01-30T13:38:30;13.38;75.21
68556;HTU21D;55544;51.032;5.866;2024-01-30T13:40:56;13.34;74.97
68556;HTU21D;55544;51.032;5.866;2024-01-30T13:43:22;13.37;73.96
68556;HTU21D;55544;51.032;5.866;2024-01-30T13:45:47;13.32;73.70
68556;HTU21D;55544;51.032;5.866;2024-01-30T13:48:13;13.22;73.63
68556;HTU21D;55544;51.032;5.866;2024-01-30T13:50:39;13.23;73.57
68556;HTU21D;55544;51.032;5.866;2024-01-30T13:53:04;13.04;73.04
68556;HTU21D;55544;51.032;5.866;2024-01-30T13:55:30;13.06;72.78
68556;HTU21D;55544;51.032;5.866;2024-01-30T13:57:56;13.02;71.44
68556;HTU21D;55544;51.032;5.866;2024-01-30T14:00:22;12.97;71.58
68556;HTU21D;55544;51.032;5.866;2024-01-30T14:02:48;12.89;70.78
68556;HTU21D;55544;51.032;5.866;2024-01-30T14:05:14;12.84;70.34
68556;HTU21D;55544;51.032;5.866;2024-01-30T14:07:41;12.76;70.08
68556;HTU21D;55544;51.032;5.866;2024-01-30T14:10:09;12.79;70.04
68556;HTU21D;55544;51.032;5.866;2024-01-30T14:12:36;12.76;70.29
68556;HTU21D;55544;51.032;5.866;2024-01-30T14:15:02;12.76;70.35
68556;HTU21D;55544;51.032;5.866;2024-01-30T14:17:28;12.86;70.28
68556;HTU21D;55544;51.032;5.866;2024-01-30T14:19:54;12.92;70.48
68556;HTU21D;55544;51.032;5.866;2024-01-30T14:22:19;12.90;70.82
68556;HTU21D;55544;51.032;5.866;2024-01-30T14:24:45;12.94;70.88
68556;HTU21D;55544;51.032;5.866;2024-01-30T14:27:11;12.90;70.81
68556;HTU21D;55544;51.032;5.866;2024-01-30T14:29:36;12.96;70.24
68556;HTU21D;55544;51.032;5.866;2024-01-30T14:32:03;13.02;70.14
68556;HTU21D;55544;51.032;5.866;2024-01-30T14:34:29;13.06;69.49
68556;HTU21D;55544;51.032;5.866;2024-01-30T14:36:55;13.02;68.75
68556;HTU21D;55544;51.032;5.866;2024-01-30T14:39:21;12.91;68.47
68556;HTU21D;55544;51.032;5.866;2024-01-30T14:41:47;12.80;66.99
68556;HTU21D;55544;51.032;5.866;2024-01-30T14:44:13;12.79;66.45
68556;HTU21D;55544;51.032;5.866;2024-01-30T14:46:40;12.65;65.40
68556;HTU21D;55544;51.032;5.866;2024-01-30T14:49:06;12.59;65.48
68556;HTU21D;55544;51.032;5.866;2024-01-30T14:51:33;12.64;64.82
68556;HTU21D;55544;51.032;5.866;2024-01-30T14:53:59;12.58;64.96
68556;HTU21D;55544;51.032;5.866;2024-01-30T14:56:26;12.44;65.17
68556;HTU21D;55544;51.032;5.866;2024-01-30T14:58:52;12.40;64.92
68556;HTU21D;55544;51.032;5.866;2024-01-30T15:01:18;12.51;65.46
68556;HTU21D;55544;51.032;5.866;2024-01-30T15:03:45;12.64;64.84
68556;HTU21D;55544;51.032;5.866;2024-01-30T15:06:14;12.76;63.78
68556;HTU21D;55544;51.032;5.866;2024-01-30T15:08:40;12.73;62.79
68556;HTU21D;55544;51.032;5.866;2024-01-30T15:11:06;12.60;63.02
68556;HTU21D;55544;51.032;5.866;2024-01-30T15:13:31;12.50;62.81
68556;HTU21D;55544;51.032;5.866;2024-01-30T15:15:58;12.45;62.66